Time;durP1;ratioP1;P1;durP2;ratioP2;P2;SDS_P1;SDS_P2;PMS_P1;PMS_P2;Temp;Humidity;BMP_temperature;BMP_pressure;BME280_temperature;BME280_humidity;BME280_pressure;Samples;Min_cycle;Max_cycle;Signal;HPM_P1;HPM_P2
2022/08/26 00:01:29;;;;;;;24.52;14.50;;;;;;;23.26;100.00;101402.53;4893640;29;20454;-61
2022/08/26 00:03:55;;;;;;;22.90;16.05;;;;;;;23.25;100.00;101403.56;4905359;29;20136;-62
2022/08/26 00:06:23;;;;;;;20.98;14.77;;;;;;;23.29;100.00;101399.44;4897841;29;20060;-61
2022/08/26 00:08:50;;;;;;;20.92;13.45;;;;;;;23.23;100.00;101404.84;4883695;29;20080;-61
2022/08/26 00:11:17;;;;;;;18.45;13.98;;;;;;;23.22;100.00;101408.53;4891518;29;20975;-62
2022/08/26 00:13:53;;;;;;;15.93;11.85;;;;;;;23.19;100.00;101411.63;4896425;29;20041;-63
2022/08/26 00:16:21;;;;;;;21.13;11.95;;;;;;;23.23;100.00;101413.69;4898009;29;20464;-61
2022/08/26 00:18:48;;;;;;;16.88;12.25;;;;;;;23.14;100.00;101417.63;4897539;29;20133;-62
2022/08/26 00:21:14;;;;;;;17.83;11.38;;;;;;;23.14;100.00;101414.97;4894435;29;20103;-62
2022/08/26 00:23:41;;;;;;;16.52;11.63;;;;;;;23.13;100.00;101418.69;4894493;29;20761;-62
2022/08/26 00:26:07;;;;;;;19.60;11.38;;;;;;;23.05;100.00;101411.75;4904760;29;20052;-61
2022/08/26 00:28:36;;;;;;;17.52;10.32;;;;;;;23.06;100.00;101415.22;4892120;29;20067;-61
2022/08/26 00:31:03;;;;;;;13.18;9.55;;;;;;;23.05;100.00;101414.41;4892390;29;20062;-61
2022/08/26 00:33:32;;;;;;;17.45;9.98;;;;;;;22.92;100.00;101411.78;4899724;29;20653;-61
2022/08/26 00:35:59;;;;;;;14.40;9.38;;;;;;;22.90;100.00;101405.81;4891468;29;20075;-61
2022/08/26 00:38:26;;;;;;;16.15;10.15;;;;;;;22.93;100.00;101399.22;4900108;29;20084;-61
2022/08/26 00:40:55;;;;;;;14.02;9.55;;;;;;;22.99;100.00;101401.03;4894615;29;20066;-62
2022/08/26 00:43:24;;;;;;;12.95;8.15;;;;;;;23.00;100.00;101398.13;4902548;29;20059;-61
2022/08/26 00:46:03;;;;;;;12.20;8.38;;;;;;;22.98;100.00;101399.41;4896674;29;20048;-61
2022/08/26 00:48:34;;;;;;;10.45;6.63;;;;;;;22.96;100.00;101404.97;4905577;29;20055;-60
2022/08/26 00:51:23;;;;;;;13.93;7.07;;;;;;;22.98;100.00;101400.22;4897532;29;20048;-61
2022/08/26 00:54:01;;;;;;;13.45;6.93;;;;;;;22.98;100.00;101408.25;4901017;29;20871;-62
2022/08/26 00:57:01;;;;;;;13.07;6.70;;;;;;;22.94;100.00;101412.38;4901050;29;20051;-61
2022/08/26 00:59:31;;;;;;;12.30;5.95;;;;;;;22.94;100.00;101416.91;4899248;29;20805;-62
2022/08/26 01:01:59;;;;;;;14.80;6.50;;;;;;;22.95;100.00;101405.16;4904035;29;20646;-60
2022/08/26 01:04:30;;;;;;;10.50;5.82;;;;;;;22.94;100.00;101415.06;4882853;29;20136;-62
2022/08/26 01:06:56;;;;;;;8.25;5.30;;;;;;;22.91;100.00;101415.47;4894967;29;20044;-62
2022/08/26 01:09:23;;;;;;;11.27;5.65;;;;;;;22.87;100.00;101422.28;4897218;29;20469;-58
2022/08/26 01:11:54;;;;;;;13.32;6.13;;;;;;;22.88;100.00;101416.72;4896429;29;20063;-60
2022/08/26 01:14:21;;;;;;;14.32;6.72;;;;;;;22.82;100.00;101419.44;4891828;29;20044;-62
2022/08/26 01:16:48;;;;;;;14.73;7.68;;;;;;;22.82;100.00;101417.59;4899796;29;20222;-61
2022/08/26 01:19:25;;;;;;;11.10;6.10;;;;;;;22.86;100.00;101415.31;4884839;29;20809;-60
2022/08/26 01:22:04;;;;;;;12.60;5.22;;;;;;;22.89;100.00;101418.38;4884917;29;20049;-62
2022/08/26 01:24:30;;;;;;;13.50;5.75;;;;;;;22.87;100.00;101416.94;4898988;29;20062;-61
2022/08/26 01:27:02;;;;;;;11.13;5.72;;;;;;;22.86;100.00;101413.44;4896525;29;20066;-60
2022/08/26 01:29:32;;;;;;;11.27;5.57;;;;;;;22.80;100.00;101416.97;4895727;29;20055;-61
2022/08/26 01:31:58;;;;;;;13.30;5.65;;;;;;;22.77;100.00;101409.38;4895213;29;20464;-61
2022/08/26 01:34:31;;;;;;;9.52;5.28;;;;;;;22.76;100.00;101399.72;4903903;29;20576;-61
2022/08/26 01:37:06;;;;;;;14.05;5.00;;;;;;;22.75;100.00;101406.09;4898761;29;20405;-61
2022/08/26 01:39:34;;;;;;;12.82;4.95;;;;;;;22.74;100.00;101411.66;4895086;29;20761;-61
2022/08/26 01:42:02;;;;;;;11.82;4.93;;;;;;;22.75;100.00;101408.75;4898160;29;20752;-61
2022/08/26 01:44:35;;;;;;;13.68;4.68;;;;;;;22.76;100.00;101407.75;4891699;29;20465;-61
2022/08/26 01:47:02;;;;;;;12.43;4.82;;;;;;;22.71;100.00;101411.03;4899335;29;20056;-62
2022/08/26 01:49:34;;;;;;;9.10;5.00;;;;;;;22.69;100.00;101410.44;4889407;29;20088;-63
2022/08/26 01:52:03;;;;;;;8.48;4.90;;;;;;;22.71;100.00;101415.56;4903598;29;20062;-63
2022/08/26 01:54:31;;;;;;;8.75;4.78;;;;;;;22.66;100.00;101418.09;4885591;29;20067;-62
2022/08/26 01:56:58;;;;;;;7.63;4.50;;;;;;;22.62;100.00;101419.50;4887877;29;20075;-60
2022/08/26 01:59:25;;;;;;;13.23;5.28;;;;;;;22.61;100.00;101420.56;4895543;29;20052;-61
2022/08/26 02:01:51;;;;;;;8.95;4.07;;;;;;;22.64;100.00;101428.97;4888563;29;20059;-61
2022/08/26 02:04:27;;;;;;;7.70;3.28;;;;;;;22.62;100.00;101432.88;4899752;29;20064;-63
2022/08/26 02:06:55;;;;;;;9.38;4.20;;;;;;;22.62;100.00;101431.06;4899360;29;20419;-61
2022/08/26 02:09:23;;;;;;;10.27;4.60;;;;;;;22.66;100.00;101426.91;4892071;29;20422;-62
2022/08/26 02:11:50;;;;;;;10.13;4.10;;;;;;;22.61;100.00;101428.59;4886413;29;20083;-61
2022/08/26 02:14:25;;;;;;;8.98;3.78;;;;;;;22.62;100.00;101430.19;4893311;29;20048;-62
2022/08/26 02:16:52;;;;;;;11.23;3.55;;;;;;;22.56;100.00;101421.22;4890912;29;20052;-62
2022/08/26 02:19:24;;;;;;;10.05;3.80;;;;;;;22.58;100.00;101426.31;4896508;29;20057;-62
2022/08/26 02:21:52;;;;;;;7.57;3.55;;;;;;;22.56;100.00;101426.56;4893337;29;20056;-62
2022/08/26 02:24:23;;;;;;;9.20;3.22;;;;;;;22.54;100.00;101425.91;4887412;29;20047;-60
2022/08/26 02:26:53;;;;;;;8.38;2.95;;;;;;;22.49;100.00;101423.06;4897475;29;20048;-62
2022/08/26 02:29:29;;;;;;;10.00;3.17;;;;;;;22.48;100.00;101416.06;4894544;29;20072;-61
2022/08/26 02:31:56;;;;;;;8.40;3.00;;;;;;;22.42;100.00;101417.72;4886389;29;20040;-62
2022/08/26 02:34:31;;;;;;;10.18;2.85;;;;;;;22.47;100.00;101423.28;4890136;29;20100;-61
2022/08/26 02:37:00;;;;;;;9.20;3.00;;;;;;;22.45;100.00;101424.53;4896720;29;20052;-61
2022/08/26 02:39:28;;;;;;;10.25;3.17;;;;;;;22.42;100.00;101422.25;4893803;29;20058;-60
2022/08/26 02:41:55;;;;;;;;;;;;;;;22.42;100.00;101417.72;4896500;29;20071;-60
2022/08/26 02:44:21;;;;;;;7.90;2.55;;;;;;;22.39;100.00;101428.03;4897035;29;19927;-61
2022/08/26 02:46:48;;;;;;;10.18;3.03;;;;;;;22.38;100.00;101434.41;4896204;29;20052;-62
2022/08/26 02:49:15;;;;;;;5.40;2.63;;;;;;;22.43;100.00;101426.59;4897376;29;20056;-63
2022/08/26 02:51:42;;;;;;;8.73;2.65;;;;;;;22.42;100.00;101435.63;4896500;29;20677;-61
2022/08/26 02:54:09;;;;;;;8.70;2.97;;;;;;;22.43;100.00;101432.75;4899082;29;20048;-62
2022/08/26 02:56:36;;;;;;;7.00;2.67;;;;;;;22.42;100.00;101428.41;4897196;29;20506;-62
2022/08/26 02:59:02;;;;;;;4.97;2.47;;;;;;;22.43;100.00;101430.06;4884573;29;20062;-63
2022/08/26 03:01:32;;;;;;;10.15;3.05;;;;;;;22.41;100.00;101428.66;4901183;29;20063;-62
2022/08/26 03:04:01;;;;;;;8.13;2.90;;;;;;;22.44;100.00;101425.53;4893518;29;20055;-61
2022/08/26 03:06:28;;;;;;;9.85;2.67;;;;;;;22.44;100.00;101421.03;4894240;29;20056;-62
2022/08/26 03:08:55;;;;;;;7.00;2.38;;;;;;;22.48;100.00;101416.91;4889728;29;20606;-62
2022/08/26 03:11:22;;;;;;;7.75;2.53;;;;;;;22.47;100.00;101417.94;4893724;29;20128;-62
2022/08/26 03:13:50;;;;;;;8.00;2.35;;;;;;;22.43;100.00;101413.22;4889540;29;20056;-64
2022/08/26 03:16:17;;;;;;;6.63;2.38;;;;;;;;;;4887527;29;20049;-61
2022/08/26 03:18:44;;;;;;;5.70;2.47;;;;;;;22.44;100.00;101413.03;4899234;29;20576;-60
2022/08/26 03:21:19;;;;;;;5.35;2.25;;;;;;;22.40;100.00;101414.44;4884060;29;20329;-57
2022/08/26 03:23:46;;;;;;;7.93;2.40;;;;;;;22.34;100.00;101420.63;4893454;29;20379;-59
2022/08/26 03:26:13;;;;;;;10.55;2.58;;;;;;;22.33;100.00;101421.69;4882069;29;20494;-62
2022/08/26 03:30:38;;;;;;;4.30;2.13;;;;;;;22.35;100.00;101418.81;4895221;29;20060;-61
2022/08/26 03:31:28;;;;;;;8.50;2.50;;;;;;;22.37;100.00;101424.75;4893642;29;20521;-61
2022/08/26 03:33:56;;;;;;;7.18;2.17;;;;;;;22.34;100.00;101427.84;4900290;29;20576;-61
2022/08/26 03:36:25;;;;;;;7.38;2.15;;;;;;;22.34;100.00;101423.31;4891128;29;20064;-60
2022/08/26 03:38:52;;;;;;;4.47;1.80;;;;;;;22.35;100.00;101440.19;4897920;29;20084;-61
2022/08/26 03:41:20;;;;;;;4.97;2.03;;;;;;;22.31;100.00;101447.78;4895390;29;21236;-62
2022/08/26 03:43:47;;;;;;;12.52;2.40;;;;;;;22.26;100.00;101444.91;4895402;29;20158;-61
2022/08/26 03:46:13;;;;;;;8.32;2.13;;;;;;;22.31;100.00;101440.59;4894375;29;20465;-61
2022/08/26 03:48:40;;;;;;;6.65;2.10;;;;;;;22.31;100.00;101437.09;4892026;29;20096;-60
2022/08/26 03:51:15;;;;;;;6.30;1.88;;;;;;;22.41;100.00;101432.13;4903051;29;20044;-61
2022/08/26 03:53:44;;;;;;;7.57;2.20;;;;;;;22.42;100.00;101439.09;4904094;29;20052;-61
2022/08/26 03:56:11;;;;;;;4.20;1.58;;;;;;;22.44;100.00;101447.78;4895433;29;20084;-61
2022/08/26 03:58:38;;;;;;;7.28;1.95;;;;;;;22.48;100.00;101450.81;4904409;29;20745;-62
2022/08/26 04:01:08;;;;;;;9.93;2.65;;;;;;;22.43;100.00;101445.31;4900627;29;20067;-62
2022/08/26 04:06:19;;;;;;;9.45;1.80;;;;;;;22.50;100.00;101452.28;4894112;29;20535;-62
2022/08/26 04:08:46;;;;;;;5.18;1.75;;;;;;;22.48;100.00;101438.28;4908127;29;20142;-63
2022/08/26 04:11:22;;;;;;;8.15;1.80;;;;;;;22.60;100.00;101437.63;4895874;29;20096;-63
2022/08/26 04:13:49;;;;;;;8.52;1.80;;;;;;;22.55;100.00;101432.91;4894201;29;20063;-61
2022/08/26 04:16:16;;;;;;;6.00;1.85;;;;;;;22.51;100.00;101429.84;4896552;29;20289;-62
2022/08/26 04:18:43;;;;;;;6.37;1.40;;;;;;;22.51;100.00;101437.03;4886028;29;20416;-61
2022/08/26 04:21:12;;;;;;;5.60;1.50;;;;;;;22.51;100.00;101435.19;4896479;29;20352;-60
2022/08/26 04:23:41;;;;;;;6.88;1.80;;;;;;;22.42;100.00;101431.09;4904023;29;20043;-62
2022/08/26 04:26:13;;;;;;;6.70;1.90;;;;;;;22.47;100.00;101439.31;4900195;29;20529;-63
2022/08/26 04:28:40;;;;;;;5.35;1.50;;;;;;;22.41;100.00;101432.13;4891004;29;20107;-61
2022/08/26 04:31:11;;;;;;;5.78;1.33;;;;;;;22.47;100.00;101441.97;4892575;29;20052;-60
2022/08/26 04:33:37;;;;;;;3.55;1.25;;;;;;;22.42;100.00;101438.31;4894906;29;20833;-62
2022/08/26 04:36:08;;;;;;;9.82;1.90;;;;;;;22.51;100.00;101437.84;4892363;29;20108;-61
2022/08/26 04:38:35;;;;;;;8.40;1.80;;;;;;;22.49;100.00;101439.91;4903198;29;20505;-62
2022/08/26 04:41:03;;;;;;;7.32;1.45;;;;;;;22.51;100.00;101437.03;4895923;29;20053;-63
2022/08/26 04:43:31;;;;;;;11.45;1.70;;;;;;;22.48;100.00;101442.81;4900364;29;20104;-61
2022/08/26 04:45:58;;;;;;;10.07;1.65;;;;;;;;;;4886810;29;20055;-62
2022/08/26 04:48:27;;;;;;;5.35;1.40;;;;;;;22.42;100.00;101449.00;4902543;29;20099;-62
2022/08/26 04:50:55;;;;;;;6.88;1.40;;;;;;;22.34;100.00;101450.03;4902318;29;20064;-62
2022/08/26 04:53:22;;;;;;;5.38;1.52;;;;;;;22.32;100.00;101452.09;4890960;29;20088;-63
2022/08/26 04:55:50;;;;;;;3.63;1.45;;;;;;;22.28;100.00;101450.88;4895069;29;20132;-61
2022/08/26 04:58:23;;;;;;;11.35;2.10;;;;;;;22.33;100.00;101448.41;4889213;29;20052;-61
2022/08/26 05:00:53;;;;;;;5.65;1.67;;;;;;;22.35;100.00;101446.34;4891677;29;20505;-60
2022/08/26 05:03:20;;;;;;;5.45;1.33;;;;;;;22.35;100.00;101459.72;4897516;29;20060;-61
2022/08/26 05:05:50;;;;;;;7.90;1.48;;;;;;;22.35;100.00;101462.38;4891682;29;20474;-61
2022/08/26 05:08:19;;;;;;;5.95;1.63;;;;;;;22.38;100.00;101458.47;4888880;29;20062;-59
2022/08/26 05:10:54;;;;;;;8.10;1.33;;;;;;;22.32;100.00;101457.44;4903717;29;20067;-61
2022/08/26 05:13:25;;;;;;;9.10;1.52;;;;;;;22.34;100.00;101459.91;4888501;29;20068;-60
2022/08/26 05:15:52;;;;;;;7.25;1.50;;;;;;;22.35;100.00;101467.72;4889408;29;20144;-61
2022/08/26 05:18:21;;;;;;;6.20;1.70;;;;;;;22.31;100.00;101459.31;4896197;29;20052;-61
2022/08/26 05:20:52;;;;;;;8.05;1.73;;;;;;;22.33;100.00;101461.78;4891189;29;20051;-61
2022/08/26 05:23:21;;;;;;;6.05;1.33;;;;;;;22.38;100.00;101464.63;4900834;29;20055;-62
2022/08/26 05:25:49;;;;;;;7.53;1.60;;;;;;;22.39;100.00;101466.28;4895642;29;20059;-60
2022/08/26 05:28:21;;;;;;;5.35;1.50;;;;;;;22.42;100.00;101473.84;4889823;29;20581;-62
2022/08/26 05:30:48;;;;;;;6.70;1.52;;;;;;;22.43;100.00;101475.50;4892358;29;20061;-62
2022/08/26 05:33:15;;;;;;;7.00;1.75;;;;;;;22.45;100.00;101476.13;4890840;29;20056;-61
2022/08/26 05:35:44;;;;;;;7.78;1.42;;;;;;;22.45;100.00;101481.47;4901104;29;20048;-61
2022/08/26 05:38:14;;;;;;;8.93;1.42;;;;;;;22.49;100.00;101480.03;4892386;29;20058;-61
2022/08/26 05:40:44;;;;;;;8.07;1.23;;;;;;;22.47;100.00;101489.28;4896507;29;20092;-62
2022/08/26 05:43:12;;;;;;;6.60;1.20;;;;;;;22.47;100.00;101487.44;4884304;29;20417;-61
2022/08/26 05:45:42;;;;;;;3.72;1.10;;;;;;;22.46;100.00;101493.81;4896559;29;20144;-62
2022/08/26 05:48:12;;;;;;;7.50;1.25;;;;;;;22.50;100.00;101489.69;4893519;29;20065;-62
2022/08/26 05:50:42;;;;;;;4.57;1.65;;;;;;;22.51;100.00;101495.84;4898333;29;20059;-61
2022/08/26 05:53:10;;;;;;;7.35;1.50;;;;;;;22.50;100.00;101499.53;4901979;29;20789;-62
2022/08/26 05:55:52;;;;;;;6.43;1.50;;;;;;;22.57;100.00;101494.19;4882700;29;20108;-62
2022/08/26 05:58:20;;;;;;;6.13;1.27;;;;;;;22.57;100.00;101496.88;4896023;29;20062;-62
2022/08/26 06:01:13;;;;;;;11.05;1.45;;;;;;;22.64;100.00;101492.31;4894598;29;20051;-62
2022/08/26 06:03:43;;;;;;;6.88;1.30;;;;;;;22.62;100.00;101495.22;4901382;29;20071;-62
2022/08/26 06:06:13;;;;;;;7.68;1.92;;;;;;;22.59;100.00;101497.50;4896193;29;20047;-62
2022/08/26 06:08:40;;;;;;;8.90;1.50;;;;;;;22.67;100.00;101497.25;4891772;29;20079;-63
2022/08/26 06:11:09;;;;;;;5.07;1.23;;;;;;;22.72;100.00;101505.47;4892658;29;20052;-62
2022/08/26 06:13:45;;;;;;;4.03;1.13;;;;;;;22.71;100.00;101495.78;4889889;29;20147;-62
2022/08/26 06:16:17;;;;;;;5.57;1.33;;;;;;;22.81;100.00;101506.88;4900955;29;20084;-61
2022/08/26 06:18:46;;;;;;;14.48;1.80;;;;;;;22.86;100.00;101503.56;4900201;29;20044;-61
2022/08/26 06:21:16;;;;;;;6.45;1.38;;;;;;;22.85;100.00;101508.09;4895304;29;20433;-61
2022/08/26 06:26:30;;;;;;;7.25;1.50;;;;;;;22.88;100.00;101502.31;4899752;29;20059;-62
2022/08/26 06:28:57;;;;;;;10.98;1.60;;;;;;;22.94;100.00;101508.69;4891749;29;20055;-61
2022/08/26 06:31:25;;;;;;;12.18;1.67;;;;;;;22.99;100.00;101514.22;4896367;29;20056;-62
2022/08/26 06:33:53;;;;;;;6.35;1.70;;;;;;;22.99;100.00;101511.56;4900636;29;20060;-62
2022/08/26 06:36:23;;;;;;;6.85;2.03;;;;;;;23.04;100.00;101513.63;4887662;29;20052;-61
2022/08/26 06:38:50;;;;;;;6.30;1.52;;;;;;;23.06;100.00;101520.38;4895138;29;20209;-61
2022/08/26 06:41:22;;;;;;;6.65;1.50;;;;;;;23.10;100.00;101510.09;4895521;29;20052;-62
2022/08/26 06:43:49;;;;;;;9.98;1.50;;;;;;;23.09;100.00;101516.44;4900169;29;20433;-62
2022/08/26 06:46:18;;;;;;;7.03;1.55;;;;;;;23.05;100.00;101517.91;4895978;29;20079;-60
2022/08/26 06:48:46;;;;;;;6.32;1.50;;;;;;;23.08;100.00;101521.00;4904309;29;20052;-62
2022/08/26 06:51:16;;;;;;;5.90;1.20;;;;;;;23.15;100.00;101528.16;4888387;29;20048;-61
2022/08/26 06:53:45;;;;;;;5.47;1.63;;;;;;;23.19;100.00;101524.88;4896326;29;20564;-61
2022/08/26 06:56:14;;;;;;;6.60;1.60;;;;;;;23.28;100.00;101526.25;4893452;29;20533;-63
2022/08/26 06:58:42;;;;;;;7.88;1.60;;;;;;;23.32;100.00;101518.63;4888962;29;20147;-62
2022/08/26 07:01:29;;;;;;;6.95;1.48;;;;;;;23.36;100.00;101527.03;4896874;29;20052;-61
2022/08/26 07:03:59;;;;;;;7.68;1.60;;;;;;;23.36;100.00;101533.22;4882982;29;20136;-62
2022/08/26 07:06:27;;;;;;;10.57;1.70;;;;;;;23.43;100.00;101536.69;4892200;29;20429;-62
2022/08/26 07:09:00;;;;;;;6.93;1.55;;;;;;;23.42;100.00;101532.38;4895395;29;20048;-61
2022/08/26 07:11:29;;;;;;;8.07;1.50;;;;;;;23.44;100.00;101538.34;4894333;29;20097;-62
2022/08/26 07:13:57;;;;;;;5.80;1.10;;;;;;;23.48;100.00;101539.53;4897682;29;20497;-61
2022/08/26 07:16:26;;;;;;;7.05;1.33;;;;;;;23.56;100.00;101535.78;4891317;29;20048;-63
2022/08/26 07:18:53;;;;;;;4.78;1.45;;;;;;;23.66;100.00;101538.81;4896360;29;20163;-62
2022/08/26 07:21:21;;;;;;;10.80;1.90;;;;;;;23.63;100.00;101541.91;4889420;29;20075;-62
2022/08/26 07:23:49;;;;;;;8.75;1.45;;;;;;;23.60;100.00;101542.34;4906776;29;20067;-62
2022/08/26 07:26:25;;;;;;;5.03;1.30;;;;;;;23.70;100.00;101533.84;4889357;29;20053;-61
2022/08/26 07:28:55;;;;;;;5.32;1.23;;;;;;;23.80;100.00;101536.09;4903184;29;20292;-63
2022/08/26 07:31:24;;;;;;;7.28;1.40;;;;;;;23.87;100.00;101544.88;4895387;29;20135;-62
2022/08/26 07:33:52;;;;;;;4.68;1.15;;;;;;;23.85;100.00;101553.13;4907243;29;20059;-62
2022/08/26 07:36:20;;;;;;;4.50;1.20;;;;;;;23.81;100.00;101559.13;4907235;29;20052;-60
2022/08/26 07:38:47;;;;;;;;;;;;;;;23.86;100.00;101560.13;4900261;29;20063;-62
2022/08/26 07:41:16;;;;;;;6.53;1.10;;;;;;;23.87;100.00;101564.47;4899520;29;19927;-62
2022/08/26 07:43:44;;;;;;;7.20;1.23;;;;;;;23.89;100.00;101553.50;4886039;29;20060;-61
2022/08/26 07:46:17;;;;;;;5.18;1.30;;;;;;;23.90;100.00;101554.34;4901123;29;20135;-62
2022/08/26 07:48:47;;;;;;;5.03;1.08;;;;;;;23.93;100.00;101562.75;4892395;29;20047;-63
2022/08/26 07:51:14;;;;;;;;;;;;;;;24.00;100.00;101562.72;4900406;29;20052;-62
2022/08/26 07:53:42;;;;;;;5.22;1.30;;;;;;;24.02;100.00;101566.81;4901922;29;19935;-62
2022/08/26 07:56:13;;;;;;;7.10;1.40;;;;;;;24.03;100.00;101572.97;4889728;29;20160;-62
2022/08/26 07:58:40;;;;;;;5.80;1.10;;;;;;;24.08;100.00;101578.53;4896837;29;20700;-62
2022/08/26 08:01:07;;;;;;;3.65;1.17;;;;;;;24.06;100.00;101568.00;4893561;29;20142;-62
2022/08/26 08:03:34;;;;;;;7.65;1.65;;;;;;;24.16;100.00;101575.56;4905200;29;20056;-62
2022/08/26 08:06:00;;;;;;;7.80;1.33;;;;;;;24.21;100.00;101573.06;4897917;29;20058;-62
2022/08/26 08:08:27;;;;;;;4.22;1.17;;;;;;;24.34;100.00;101573.97;4899538;29;20064;-62
2022/08/26 08:10:55;;;;;;;4.00;1.00;;;;;;;24.38;100.00;101569.81;4893720;29;20052;-62
2022/08/26 08:13:23;;;;;;;6.45;1.10;;;;;;;24.44;100.00;101566.25;4883250;29;20283;-62
2022/08/26 08:15:49;;;;;;;;;;;;;;;24.49;100.00;101574.47;4905756;29;20041;-61
2022/08/26 08:18:17;;;;;;;6.32;1.25;;;;;;;24.47;100.00;101571.19;4890664;29;19934;-63
2022/08/26 08:20:46;;;;;;;6.20;1.20;;;;;;;24.46;99.73;101572.22;4898938;29;20067;-63
2022/08/26 08:23:33;;;;;;;5.60;1.27;;;;;;;24.57;100.00;101573.38;4890199;29;20446;-62
2022/08/26 08:26:09;;;;;;;7.82;1.30;;;;;;;24.61;100.00;101575.41;4884920;29;20088;-63
2022/08/26 08:28:38;;;;;;;7.05;1.25;;;;;;;24.62;99.21;101571.69;4889284;29;20068;-62
2022/08/26 08:31:06;;;;;;;4.40;1.20;;;;;;;24.58;99.52;101572.34;4897659;29;20862;-64
2022/08/26 08:33:34;;;;;;;7.05;1.27;;;;;;;24.58;100.00;101577.69;4897894;29;20064;-62
2022/08/26 08:36:00;;;;;;;4.80;1.40;;;;;;;24.54;100.00;101577.34;4894631;29;20084;-62
2022/08/26 08:38:28;;;;;;;5.47;1.50;;;;;;;24.45;100.00;101576.75;4892903;29;20066;-62
2022/08/26 08:40:54;;;;;;;5.20;1.38;;;;;;;24.44;100.00;101577.81;4883472;29;20151;-62
2022/08/26 08:43:37;;;;;;;5.97;1.27;;;;;;;24.50;100.00;101580.63;4903468;29;20048;-63
2022/08/26 08:46:10;;;;;;;7.30;1.60;;;;;;;24.41;100.00;101583.59;4893614;29;20049;-62
2022/08/26 08:48:42;;;;;;;9.77;1.40;;;;;;;24.43;100.00;101572.66;4901498;29;20048;-62
2022/08/26 08:51:46;;;;;;;9.95;1.42;;;;;;;24.48;100.00;101583.53;4899178;29;20517;-62
2022/08/26 08:54:13;;;;;;;8.43;1.23;;;;;;;24.46;100.00;101582.94;4894318;29;20293;-61
2022/08/26 08:56:47;;;;;;;6.30;1.48;;;;;;;24.36;100.00;101583.44;4894877;29;21367;-62
2022/08/26 08:59:23;;;;;;;12.50;1.60;;;;;;;24.26;100.00;101583.13;4893341;29;20433;-62
2022/08/26 09:01:58;;;;;;;6.85;1.55;;;;;;;24.10;100.00;101600.56;4889411;29;20096;-63
2022/08/26 09:04:59;;;;;;;7.05;1.13;;;;;;;24.06;100.00;101599.34;4895996;29;20057;-62
2022/08/26 09:07:56;;;;;;;7.13;1.10;;;;;;;24.07;100.00;101595.63;4898496;29;20163;-62
2022/08/26 09:10:44;;;;;;;4.20;1.20;;;;;;;24.07;100.00;101596.47;4891586;29;20557;-61
2022/08/26 09:13:13;;;;;;;10.02;1.58;;;;;;;24.02;100.00;101593.59;4897664;29;20044;-61
2022/08/26 09:16:12;;;;;;;7.22;1.35;;;;;;;24.07;100.00;101595.63;4894909;29;20108;-62
2022/08/26 09:19:03;;;;;;;5.28;1.35;;;;;;;24.14;100.00;101596.41;4906100;29;20056;-62
2022/08/26 09:21:31;;;;;;;6.03;1.52;;;;;;;24.19;100.00;101593.91;4887905;29;20051;-62
2022/08/26 09:23:58;;;;;;;10.20;1.50;;;;;;;24.18;100.00;101592.25;4901338;29;20059;-62
2022/08/26 09:26:37;;;;;;;9.50;1.27;;;;;;;24.26;100.00;101596.53;4890565;29;20056;-62
2022/08/26 09:29:09;;;;;;;12.43;1.50;;;;;;;24.20;100.00;101598.22;4899193;29;20818;-62
2022/08/26 09:31:40;;;;;;;10.10;1.60;;;;;;;24.22;100.00;101595.31;4895838;29;20047;-63
2022/08/26 09:34:20;;;;;;;8.63;1.40;;;;;;;24.30;100.00;101591.53;4898948;29;20513;-62
2022/08/26 09:36:53;;;;;;;7.68;1.45;;;;;;;24.34;100.00;101595.44;4888119;29;20048;-62
2022/08/26 09:39:35;;;;;;;11.05;1.75;;;;;;;24.44;100.00;101595.75;4888193;29;20598;-62
2022/08/26 09:42:08;;;;;;;6.63;1.60;;;;;;;24.37;100.00;101590.44;4901970;29;20481;-62
2022/08/26 09:45:09;;;;;;;7.47;1.55;;;;;;;24.28;100.00;101597.94;4892452;29;20087;-62
2022/08/26 09:47:40;;;;;;;7.70;1.50;;;;;;;24.21;100.00;101599.88;4873367;29;20084;-61
2022/08/26 09:50:28;;;;;;;6.85;1.40;;;;;;;24.16;100.00;101597.00;4889771;29;20603;-61
2022/08/26 09:53:18;;;;;;;6.55;1.48;;;;;;;24.16;100.00;101590.84;4901558;29;20052;-61
2022/08/26 09:56:15;;;;;;;9.48;1.35;;;;;;;24.11;100.00;101598.69;4893929;29;20044;-63
2022/08/26 09:58:45;;;;;;;5.65;1.27;;;;;;;24.18;100.00;101596.78;4903740;29;20051;-62
2022/08/26 10:01:21;;;;;;;4.78;1.30;;;;;;;24.14;100.00;101599.09;4895077;29;20079;-62
2022/08/26 10:03:49;;;;;;;7.57;1.40;;;;;;;24.10;100.00;101597.88;4889174;29;20071;-62
2022/08/26 10:06:15;;;;;;;13.30;1.60;;;;;;;24.08;100.00;101599.97;4889045;29;20109;-62
2022/08/26 10:08:46;;;;;;;8.57;1.55;;;;;;;24.12;100.00;101600.34;4901485;29;20104;-61
2022/08/26 10:11:36;;;;;;;7.75;1.40;;;;;;;24.13;100.00;101588.56;4889505;29;20135;-61
2022/08/26 10:14:17;;;;;;;9.23;1.42;;;;;;;24.17;100.00;101593.31;4896303;29;20056;-62
2022/08/26 10:17:04;;;;;;;8.52;1.42;;;;;;;24.20;100.00;101589.34;4899501;29;20104;-61
2022/08/26 10:19:43;;;;;;;7.37;1.53;;;;;;;24.22;100.00;101587.28;4901240;29;20492;-62
2022/08/26 10:22:45;;;;;;;7.95;1.77;;;;;;;24.19;100.00;101587.72;4898159;29;20058;-62
2022/08/26 10:25:16;;;;;;;6.63;1.38;;;;;;;24.19;100.00;101588.53;4881847;29;20053;-62
2022/08/26 10:28:08;;;;;;;8.13;1.40;;;;;;;24.28;100.00;101594.44;4899238;29;20422;-62
2022/08/26 10:30:45;;;;;;;7.45;1.60;;;;;;;24.12;100.00;101590.44;4888729;29;20113;-61
2022/08/26 10:33:17;;;;;;;5.03;1.40;;;;;;;24.10;100.00;101597.06;4894020;29;20052;-62
2022/08/26 10:35:50;;;;;;;7.15;1.50;;;;;;;24.15;100.00;101602.56;4895364;29;20100;-61
2022/08/26 10:38:27;;;;;;;9.25;1.52;;;;;;;24.07;100.00;101599.16;4897135;29;20051;-62
2022/08/26 10:41:01;;;;;;;6.57;1.30;;;;;;;24.11;100.00;101590.66;4890787;29;20052;-62
2022/08/26 10:43:31;;;;;;;8.43;1.40;;;;;;;24.19;100.00;101593.09;4899804;29;20084;-62
2022/08/26 10:46:03;;;;;;;6.90;1.40;;;;;;;24.30;100.00;101591.53;4886152;29;21024;-62
2022/08/26 10:48:40;;;;;;;11.52;3.63;;;;;;;24.44;100.00;101595.75;4896185;29;20460;-62
2022/08/26 10:51:09;;;;;;;6.28;1.75;;;;;;;24.45;100.00;101592.84;4905937;29;20047;-62
2022/08/26 10:53:58;;;;;;;6.38;1.42;;;;;;;24.46;96.78;101588.31;4900624;29;20075;-62
2022/08/26 10:57:20;;;;;;;8.32;1.33;;;;;;;24.39;95.30;101601.78;4894003;29;20056;-62
2022/08/26 11:03:37;;;;;;;8.52;1.63;;;;;;;24.53;96.06;101599.00;4872587;29;20286;-63
2022/08/26 11:06:28;;;;;;;3.58;1.10;;;;;;;24.54;94.76;101601.47;4902345;29;20058;-62
2022/08/26 11:08:57;;;;;;;5.80;1.30;;;;;;;24.49;95.55;101601.28;4900024;29;20054;-63
2022/08/26 11:11:39;;;;;;;4.65;1.00;;;;;;;24.45;97.07;101603.56;4898931;29;20514;-62
2022/08/26 11:14:19;;;;;;;5.40;1.30;;;;;;;24.51;98.18;101607.28;4906932;29;20052;-62
2022/08/26 11:16:56;;;;;;;6.88;1.48;;;;;;;24.40;97.85;101610.63;4891553;29;20621;-62
2022/08/26 11:19:36;;;;;;;8.32;1.27;;;;;;;24.41;100.00;101609.59;4894377;29;20052;-61
2022/08/26 11:22:29;;;;;;;3.58;0.88;;;;;;;24.27;100.00;101606.22;4883866;29;20433;-62
2022/08/26 11:24:56;;;;;;;6.07;1.02;;;;;;;24.15;100.00;101610.63;4904313;29;20494;-61
2022/08/26 11:27:23;;;;;;;5.30;2.10;;;;;;;24.01;100.00;101608.06;4901248;29;20139;-61
2022/08/26 11:29:59;;;;;;;5.97;1.25;;;;;;;24.08;100.00;101605.31;4903615;29;20675;-61
2022/08/26 11:32:48;;;;;;;4.82;1.20;;;;;;;24.09;100.00;101612.34;4899736;29;20067;-62
2022/08/26 11:35:18;;;;;;;4.03;1.13;;;;;;;24.06;100.00;101610.06;4900693;29;20568;-62
2022/08/26 11:37:46;;;;;;;7.22;1.33;;;;;;;24.04;100.00;101612.16;4894631;29;20526;-62
2022/08/26 11:40:16;;;;;;;6.55;1.38;;;;;;;24.05;100.00;101608.41;4898169;29;20071;-62
2022/08/26 11:42:50;;;;;;;4.05;1.10;;;;;;;24.06;100.00;101596.69;4904420;29;20052;-62
2022/08/26 11:45:23;;;;;;;4.18;0.93;;;;;;;24.04;100.00;101596.88;4899711;29;20060;-62
2022/08/26 11:47:49;;;;;;;5.80;1.20;;;;;;;24.13;100.00;101592.09;4899032;29;20469;-62